Yellowstone National Park, Wyoming
Current Conditions -  °F | °C
As of 9:56 AM on Friday 28 Nov 2014 (Local Time) from KDIJ Reporting Station
Scattered Clouds Scattered Clouds  
Wind Chill: 38°   Ceiling: Unl
Heat Index: 43°   Visibility: 10mi
Dew Point: 23°   Wind: 9mph
Humidity: 45%   Direction: 160°SSE
Pressure: 29.94"   Gusts: NA
Location:  44.5747°N, 110.518°W
Report Text: KDIJ 281656Z AUTO 16008KT 10SM SCT110 06/M05 A2994 RMK AO2 T00611050 SLP100
Loading
Personal Weather Stations






























Interactive Weather Map New forecast layout! Learn more

10-Day Weather Forecast

Advertisements
Track Severe Weather on mobile